Duncan, South Carolina
Current Conditions -  °F | °C
As of 5:53 PM on Friday 28 Nov 2014 (Local Time) from KGSP Reporting Station
Clear Clear  
Wind Chill: 38°   Ceiling: Unl
Heat Index: 42°   Visibility: 10mi
Dew Point: 21°   Wind: 7mph
Humidity: 43%   Direction: 210°SSW
Pressure: 30.27"   Gusts: NA
Location:  34.94°N, 82.14°W
Report Text: KGSP 282253Z 21006KT 10SM CLR 06/M06 A3027 RMK AO2 SLP254 T00561061
Loading
Personal Weather Stations






























Interactive Weather Map New forecast layout! Learn more

10-Day Weather Forecast

Advertisements
Track Severe Weather on mobile